createdAt,value
2023-03-12T00:00:11.487Z,98887.28
2023-03-12T00:02:40.088Z,98891.91
2023-03-12T00:05:09.868Z,98896.53
2023-03-12T00:07:39.803Z,98891.56
2023-03-12T00:10:10.089Z,98910.03
2023-03-12T00:12:38.561Z,98902.97
2023-03-12T00:15:09.266Z,98913.28
2023-03-12T00:17:37.975Z,98913.50
2023-03-12T00:20:08.004Z,98914.59
2023-03-12T00:22:36.528Z,98921.09
2023-03-12T00:25:09.411Z,98918.84
2023-03-12T00:27:38.288Z,98915.31
2023-03-12T00:30:09.046Z,98918.50
2023-03-12T00:32:38.162Z,98916.84
2023-03-12T00:35:08.772Z,98912.97
2023-03-12T00:37:38.305Z,98916.53
2023-03-12T00:40:11.496Z,98917.56
2023-03-12T00:42:39.977Z,98922.44
2023-03-12T00:45:09.903Z,98918.06
2023-03-12T00:47:38.368Z,98914.78
2023-03-12T00:50:07.970Z,98922.94
2023-03-12T00:52:36.616Z,98927.56
2023-03-12T00:55:05.646Z,98924.25
2023-03-12T00:57:35.464Z,98924.47
2023-03-12T01:00:06.072Z,98917.38
2023-03-12T01:02:34.575Z,98932.88
2023-03-12T01:05:03.060Z,98927.44
2023-03-12T01:07:31.458Z,98928.50
2023-03-12T01:09:59.970Z,98938.59
2023-03-12T01:12:28.359Z,98931.47
2023-03-12T01:14:58.217Z,98937.97
2023-03-12T01:17:26.706Z,98949.94
2023-03-12T01:19:55.101Z,98940.13
2023-03-12T01:22:23.594Z,98940.38
2023-03-12T01:24:52.025Z,98946.66
2023-03-12T01:27:20.854Z,98937.06
2023-03-12T01:29:49.274Z,98945.47
2023-03-12T01:32:19.128Z,98943.81
2023-03-12T01:34:47.550Z,98954.13
2023-03-12T01:37:16.108Z,98959.81
2023-03-12T01:39:44.552Z,98965.47
2023-03-12T01:42:12.969Z,98972.00
2023-03-12T01:44:55.913Z,98963.47
2023-03-12T01:47:26.600Z,98968.91
2023-03-12T01:49:57.003Z,98963.94
2023-03-12T01:52:29.247Z,98958.50
2023-03-12T01:55:04.345Z,98956.03
2023-03-12T01:57:38.198Z,98948.09
2023-03-12T02:00:13.866Z,98955.44
2023-03-12T02:02:45.295Z,98944.78
2023-03-12T02:05:23.008Z,98941.50
2023-03-12T02:07:51.432Z,98939.81
2023-03-12T02:10:20.201Z,98946.56
2023-03-12T02:12:48.698Z,98955.56
2023-03-12T02:15:17.458Z,98953.06
2023-03-12T02:17:47.477Z,98955.78
2023-03-12T02:20:22.353Z,98971.31
2023-03-12T02:23:03.990Z,98963.94
2023-03-12T02:25:40.909Z,98962.56
2023-03-12T02:28:14.267Z,98962.56
2023-03-12T02:30:46.027Z,98969.06
2023-03-12T02:33:16.247Z,98970.09
2023-03-12T02:35:46.600Z,98988.09
2023-03-12T02:38:41.662Z,98982.31
2023-03-12T02:41:25.200Z,98992.38
2023-03-12T02:44:02.439Z,98988.22
2023-03-12T02:46:35.193Z,98989.28
2023-03-12T02:49:04.022Z,98992.00
2023-03-12T02:51:32.451Z,98998.53
2023-03-12T02:54:00.870Z,98995.81
2023-03-12T02:56:31.187Z,98994.97
2023-03-12T02:59:01.482Z,98998.53
2023-03-12T03:01:33.850Z,99006.69
2023-03-12T03:04:03.490Z,99003.97
2023-03-12T03:06:32.539Z,99000.41
2023-03-12T03:09:01.188Z,99005.25
2023-03-12T03:11:31.084Z,99003.59
2023-03-12T03:13:59.488Z,99010.13
2023-03-12T03:16:28.001Z,99004.09
2023-03-12T03:18:56.425Z,99010.56
2023-03-12T03:21:24.848Z,99012.47
2023-03-12T03:23:53.829Z,99021.69
2023-03-12T03:26:24.704Z,99011.03
2023-03-12T03:28:54.566Z,99015.88
2023-03-12T03:31:23.349Z,99020.50
2023-03-12T03:33:52.150Z,99016.13
2023-03-12T03:36:20.968Z,99027.25
2023-03-12T03:38:49.367Z,99031.03
2023-03-12T03:41:18.422Z,99039.44
2023-03-12T03:43:46.992Z,99028.75
2023-03-12T03:46:17.595Z,99026.28
2023-03-12T03:48:46.067Z,99027.34
2023-03-12T03:51:14.500Z,99044.75
2023-03-12T03:53:42.900Z,99043.91
2023-03-12T03:56:14.072Z,99046.63
2023-03-12T03:58:42.635Z,99043.06
2023-03-12T04:01:11.559Z,99044.94
2023-03-12T04:03:41.472Z,99047.66
2023-03-12T04:06:10.188Z,99050.38
2023-03-12T04:08:39.232Z,99055.25
2023-03-12T04:11:14.921Z,99054.44
2023-03-12T04:13:44.030Z,99057.16
2023-03-12T04:16:13.903Z,99053.81
2023-03-12T04:18:44.269Z,99067.41
2023-03-12T04:21:14.653Z,99062.81
2023-03-12T04:23:43.487Z,99067.66
2023-03-12T04:26:11.985Z,99066.00
2023-03-12T04:28:40.486Z,99072.25
2023-03-12T04:31:10.185Z,99070.63
2023-03-12T04:33:40.488Z,99073.56
2023-03-12T04:36:10.867Z,99075.69
2023-03-12T04:38:39.406Z,99080.28
2023-03-12T04:41:10.777Z,99083.00
2023-03-12T04:43:39.228Z,99090.34
2023-03-12T04:46:08.949Z,99097.91
2023-03-12T04:48:39.177Z,99097.91
2023-03-12T04:51:09.242Z,99094.56
2023-03-12T04:53:38.072Z,99093.75
2023-03-12T04:56:07.240Z,99098.59
2023-03-12T04:58:35.950Z,99104.03
2023-03-12T05:01:05.677Z,99106.97
2023-03-12T05:03:34.219Z,99101.53
2023-03-12T05:06:02.610Z,99109.47
2023-03-12T05:08:32.377Z,99107.81
2023-03-12T05:11:00.827Z,99109.69
2023-03-12T05:13:29.216Z,99108.06
2023-03-12T05:15:57.775Z,99111.56
2023-03-12T05:18:26.978Z,99115.13
2023-03-12T05:21:03.566Z,99120.81
2023-03-12T05:23:33.986Z,99122.44
2023-03-12T05:26:02.837Z,99123.53
2023-03-12T05:28:31.848Z,99117.00
2023-03-12T05:31:02.265Z,99118.09
2023-03-12T05:33:31.356Z,99123.06
2023-03-12T05:35:59.866Z,99121.16
2023-03-12T05:38:28.286Z,99123.69
2023-03-12T05:41:00.289Z,99123.19
2023-03-12T05:43:29.948Z,99128.41
2023-03-12T05:46:01.993Z,99141.78
2023-03-12T05:48:30.615Z,99148.88
2023-03-12T05:50:59.457Z,99143.44
2023-03-12T05:53:28.015Z,99154.09
2023-03-12T05:56:04.764Z,99147.59
2023-03-12T05:58:33.458Z,99158.81
2023-03-12T06:01:02.792Z,99152.94
2023-03-12T06:03:31.309Z,99158.97
2023-03-12T06:05:59.735Z,99166.44
2023-03-12T06:08:28.256Z,99160.53
2023-03-12T06:10:58.060Z,99171.31
2023-03-12T06:13:28.147Z,99171.69
2023-03-12T06:16:02.238Z,99166.13
2023-03-12T06:18:30.662Z,99169.59
2023-03-12T06:21:10.771Z,99168.44
2023-03-12T06:23:39.384Z,99171.63
2023-03-12T06:26:12.942Z,99175.34
2023-03-12T06:28:41.583Z,99175.81
2023-03-12T06:31:10.676Z,99179.50
2023-03-12T06:33:39.195Z,99177.72
2023-03-12T06:36:10.814Z,99175.97
2023-03-12T06:38:40.058Z,99183.41
2023-03-12T06:41:12.634Z,99187.56
2023-03-12T06:43:42.138Z,99182.47
2023-03-12T06:46:14.777Z,99185.31
2023-03-12T06:48:44.171Z,99189.34
2023-03-12T06:51:15.187Z,99192.53
2023-03-12T06:53:44.203Z,99184.84
2023-03-12T06:56:14.868Z,99191.72
2023-03-12T06:58:43.678Z,99189.44
2023-03-12T07:01:12.202Z,99188.66
2023-03-12T07:03:40.824Z,99192.22
2023-03-12T07:06:16.235Z,99189.81
2023-03-12T07:08:45.042Z,99185.34
2023-03-12T07:11:15.422Z,99192.31
2023-03-12T07:13:43.876Z,99187.53
2023-03-12T07:16:13.048Z,99187.38
2023-03-12T07:18:41.490Z,99189.09
2023-03-12T07:21:09.958Z,99190.88
2023-03-12T07:23:38.425Z,99182.50
2023-03-12T07:26:07.543Z,99190.78
2023-03-12T07:28:37.336Z,99192.22
2023-03-12T07:31:06.785Z,99188.38
2023-03-12T07:33:35.693Z,99195.25
2023-03-12T07:36:04.500Z,99193.44
2023-03-12T07:38:33.200Z,99196.00
2023-03-12T07:41:01.693Z,99203.28
2023-03-12T07:43:30.287Z,99203.19
2023-03-12T07:46:00.121Z,99202.03
2023-03-12T07:48:28.676Z,99203.28
2023-03-12T07:50:57.076Z,99198.81
2023-03-12T07:53:25.543Z,99201.44
2023-03-12T07:55:54.940Z,99196.66
2023-03-12T07:58:23.635Z,99206.34
2023-03-12T08:00:53.730Z,99206.16
2023-03-12T08:03:23.780Z,99202.41
2023-03-12T08:06:00.775Z,99202.47
2023-03-12T08:08:30.106Z,99200.09
2023-03-12T08:10:59.144Z,99198.00
2023-03-12T08:13:28.201Z,99201.94
2023-03-12T08:15:56.987Z,99199.03
2023-03-12T08:18:27.091Z,99202.97
2023-03-12T08:20:56.060Z,99201.13
2023-03-12T08:23:24.675Z,99205.81
2023-03-12T08:25:53.648Z,99208.56
2023-03-12T08:28:25.361Z,99200.16
2023-03-12T08:30:56.531Z,99196.66
2023-03-12T08:33:26.447Z,99198.91
2023-03-12T08:35:55.116Z,99202.53
2023-03-12T08:38:24.051Z,99204.47
2023-03-12T08:40:58.105Z,99202.91
2023-03-12T08:43:29.186Z,99201.00
2023-03-12T08:45:59.193Z,99202.16
2023-03-12T08:48:31.264Z,99202.44
2023-03-12T08:51:04.107Z,99208.00
2023-03-12T08:53:34.589Z,99203.69
2023-03-12T08:56:03.856Z,99203.19
2023-03-12T08:58:32.996Z,99209.84
2023-03-12T09:01:01.732Z,99203.88
2023-03-12T09:03:31.696Z,99204.97
2023-03-12T09:06:10.731Z,99214.06
2023-03-12T09:08:39.200Z,99216.03
2023-03-12T09:11:09.697Z,99216.06
2023-03-12T09:13:59.718Z,99215.56
2023-03-12T09:16:26.906Z,99211.47
2023-03-12T09:18:56.917Z,99218.38
2023-03-12T09:21:25.385Z,99222.22
2023-03-12T09:23:53.820Z,99217.00
2023-03-12T09:26:22.268Z,99216.72
2023-03-12T09:28:51.003Z,99207.69
2023-03-12T09:31:19.719Z,99209.88
2023-03-12T09:33:48.246Z,99214.84
2023-03-12T09:36:18.073Z,99214.31
2023-03-12T09:38:46.458Z,99213.50
2023-03-12T09:41:21.805Z,99210.75
2023-03-12T09:43:56.206Z,99218.47
2023-03-12T09:46:32.143Z,99211.88
2023-03-12T09:49:07.716Z,99216.00
2023-03-12T09:51:42.567Z,99208.88
2023-03-12T09:54:25.930Z,99205.00
2023-03-12T09:56:56.527Z,99210.25
2023-03-12T09:59:25.417Z,99200.88
2023-03-12T10:01:59.533Z,99201.16
2023-03-12T10:04:58.525Z,99197.03
2023-03-12T10:07:36.100Z,99197.56
2023-03-12T10:10:33.299Z,99196.75
2023-03-12T10:13:38.834Z,99187.44
2023-03-12T10:16:18.056Z,99189.91
2023-03-12T10:19:08.578Z,99203.63
2023-03-12T10:21:46.946Z,99196.50
2023-03-12T10:24:32.384Z,99198.97
2023-03-12T10:27:01.955Z,99191.56
2023-03-12T10:29:34.363Z,99191.81
2023-03-12T10:32:09.612Z,99180.03
2023-03-12T10:34:43.801Z,99179.47
2023-03-12T10:37:19.977Z,99179.75
2023-03-12T10:39:50.327Z,99175.91
2023-03-12T10:42:21.227Z,99171.25
2023-03-12T10:44:53.880Z,99174.56
2023-03-12T10:47:36.843Z,99167.69
2023-03-12T10:50:18.902Z,99163.22
2023-03-12T10:52:49.312Z,99157.00
2023-03-12T10:55:30.626Z,99146.50
2023-03-12T10:57:59.722Z,99147.44
2023-03-12T11:00:32.183Z,99139.00
2023-03-12T11:03:03.666Z,99146.44
2023-03-12T11:05:36.201Z,99129.84
2023-03-12T11:08:20.091Z,99133.84
2023-03-12T11:10:49.946Z,99128.28
2023-03-12T11:13:26.823Z,99113.91
2023-03-12T11:15:57.182Z,99108.16
2023-03-12T11:18:35.806Z,99113.97
2023-03-12T11:21:19.732Z,99112.72
2023-03-12T11:24:07.550Z,99100.91
2023-03-12T11:26:48.451Z,99098.41
2023-03-12T11:29:28.361Z,99090.16
2023-03-12T11:32:07.812Z,99084.13
2023-03-12T11:34:39.849Z,99079.25
2023-03-12T11:37:15.919Z,99072.63
2023-03-12T11:40:10.942Z,99060.69
2023-03-12T11:43:05.993Z,99050.97
2023-03-12T11:45:51.696Z,99062.91
2023-03-12T11:48:26.558Z,99059.25
2023-03-12T11:51:15.270Z,99037.28
2023-03-12T11:54:40.473Z,99047.03
2023-03-12T11:57:17.376Z,99037.09
2023-03-12T12:00:07.163Z,99037.56
2023-03-12T12:03:22.613Z,99040.88
2023-03-12T12:06:02.675Z,99033.69
2023-03-12T12:08:49.395Z,99024.66
2023-03-12T12:11:28.230Z,99027.59
2023-03-12T12:14:15.067Z,99030.50
2023-03-12T12:17:00.199Z,99028.16
2023-03-12T12:19:47.920Z,99019.94
2023-03-12T12:22:36.450Z,99015.34
2023-03-12T12:25:35.146Z,99024.75
2023-03-12T12:28:27.041Z,99023.50
2023-03-12T12:31:09.249Z,99005.06
2023-03-12T12:34:10.709Z,99007.50
2023-03-12T12:36:39.484Z,99006.63
2023-03-12T12:39:17.508Z,98992.41
2023-03-12T12:41:52.521Z,98993.63
2023-03-12T12:44:28.262Z,99002.72
2023-03-12T12:47:02.583Z,98995.50
2023-03-12T12:49:43.550Z,98996.25
2023-03-12T12:52:20.108Z,98998.22
2023-03-12T12:55:00.473Z,98985.66
2023-03-12T12:57:39.141Z,98990.34
2023-03-12T13:00:24.107Z,98984.16
2023-03-12T13:02:53.304Z,98997.81
2023-03-12T13:05:41.117Z,99000.56
2023-03-12T13:08:30.454Z,98987.22
2023-03-12T13:11:16.248Z,98991.78
2023-03-12T13:13:49.953Z,98988.25
2023-03-12T13:16:32.641Z,98996.28
2023-03-12T13:19:06.159Z,98981.28
2023-03-12T13:21:41.238Z,98996.03
2023-03-12T13:24:24.961Z,98999.34
2023-03-12T13:27:01.959Z,98998.34
2023-03-12T13:29:42.896Z,99000.31
2023-03-12T13:32:59.787Z,98999.28
2023-03-12T13:35:34.585Z,99003.69
2023-03-12T13:38:13.234Z,99004.81
2023-03-12T13:41:02.746Z,99018.16
2023-03-12T13:43:52.202Z,99015.09
2023-03-12T13:46:45.963Z,99010.69
2023-03-12T13:49:20.963Z,99006.78
2023-03-12T13:52:20.716Z,99022.69
2023-03-12T13:55:00.044Z,99028.97
2023-03-12T13:57:40.499Z,99041.03
2023-03-12T14:00:20.779Z,99042.03
2023-03-12T14:02:55.095Z,99036.91
2023-03-12T14:05:24.638Z,99038.41
2023-03-12T14:08:23.633Z,99040.84
2023-03-12T14:11:21.533Z,99042.06
2023-03-12T14:14:18.538Z,99047.09
2023-03-12T14:16:52.702Z,99040.13
2023-03-12T14:19:27.570Z,99036.53
2023-03-12T14:22:01.230Z,99042.06
2023-03-12T14:24:34.744Z,99047.19
2023-03-12T14:27:08.120Z,99043.16
2023-03-12T14:29:40.156Z,99043.84
2023-03-12T14:32:19.119Z,99045.94
2023-03-12T14:34:53.687Z,99046.66
2023-03-12T14:37:26.792Z,99040.44
2023-03-12T14:39:58.980Z,99048.56
2023-03-12T14:42:33.372Z,99045.66
2023-03-12T14:45:05.423Z,99055.44
2023-03-12T14:47:43.756Z,99052.53
2023-03-12T14:50:20.434Z,99045.22
2023-03-12T14:52:49.928Z,99043.84
2023-03-12T14:55:23.623Z,99037.59
2023-03-12T14:58:06.018Z,99036.31
2023-03-12T15:00:36.019Z,99047.63
2023-03-12T15:03:15.355Z,99047.94
2023-03-12T15:05:48.684Z,99047.94
2023-03-12T15:08:18.224Z,99050.72
2023-03-12T15:10:53.722Z,99044.97
2023-03-12T15:13:25.642Z,99048.84
2023-03-12T15:15:56.708Z,99039.72
2023-03-12T15:18:30.585Z,99033.41
2023-03-12T15:21:03.372Z,99036.94
2023-03-12T15:23:36.456Z,99047.22
2023-03-12T15:26:15.449Z,99031.75
2023-03-12T15:28:46.569Z,99032.25
2023-03-12T15:31:19.405Z,99029.50
2023-03-12T15:34:02.902Z,99030.91
2023-03-12T15:36:34.308Z,99027.03
2023-03-12T15:39:06.812Z,99019.84
2023-03-12T15:41:45.428Z,99014.94
2023-03-12T15:44:22.155Z,99021.28
2023-03-12T15:46:55.405Z,99009.44
2023-03-12T15:49:31.208Z,99015.59
2023-03-12T15:52:06.595Z,99013.41
2023-03-12T15:54:40.993Z,99006.31
2023-03-12T15:57:26.294Z,99008.91
2023-03-12T16:00:32.478Z,99014.81
2023-03-12T16:03:11.558Z,99015.94
2023-03-12T16:05:42.375Z,99014.88
2023-03-12T16:08:21.118Z,99019.56
2023-03-12T16:10:52.191Z,99026.22
2023-03-12T16:13:27.007Z,99011.06
2023-03-12T16:15:56.645Z,99011.66
2023-03-12T16:18:27.301Z,99013.88
2023-03-12T16:20:58.138Z,99018.34
2023-03-12T16:23:27.556Z,99020.03
2023-03-12T16:25:58.152Z,99023.66
2023-03-12T16:28:28.933Z,99031.19
2023-03-12T16:30:59.444Z,99025.16
2023-03-12T16:33:29.972Z,99023.47
2023-03-12T16:36:02.130Z,99028.16
2023-03-12T16:38:31.997Z,99033.41
2023-03-12T16:41:01.704Z,99029.53
2023-03-12T16:43:34.374Z,99038.63
2023-03-12T16:46:05.983Z,99036.72
2023-03-12T16:48:36.364Z,99035.03
2023-03-12T16:51:14.056Z,99032.88
2023-03-12T16:53:43.796Z,99035.09
2023-03-12T16:56:20.379Z,99037.94
2023-03-12T16:58:50.228Z,99044.00
2023-03-12T17:01:23.172Z,99045.41
2023-03-12T17:03:54.663Z,99044.00
2023-03-12T17:06:29.367Z,99037.38
2023-03-12T17:08:59.702Z,99047.00
2023-03-12T17:11:38.083Z,99045.91
2023-03-12T17:14:18.560Z,99047.00
2023-03-12T17:16:49.845Z,99038.19
2023-03-12T17:19:20.038Z,99040.13
2023-03-12T17:21:54.069Z,99047.59
2023-03-12T17:24:28.510Z,99047.88
2023-03-12T17:26:58.642Z,99058.06
2023-03-12T17:29:30.067Z,99052.03
2023-03-12T17:32:00.453Z,99058.38
2023-03-12T17:34:30.792Z,99060.59
2023-03-12T17:37:03.280Z,99059.53
2023-03-12T17:39:33.141Z,99058.47
2023-03-12T17:42:04.366Z,99054.63
2023-03-12T17:44:37.831Z,99066.25
2023-03-12T17:47:08.505Z,99059.63
2023-03-12T17:49:40.149Z,99050.50
2023-03-12T17:52:13.213Z,99054.94
2023-03-12T17:54:45.513Z,99058.00
2023-03-12T17:57:17.672Z,99058.25
2023-03-12T17:59:49.286Z,99051.38
2023-03-12T18:02:19.625Z,99057.72
2023-03-12T18:04:50.454Z,99059.94
2023-03-12T18:07:22.883Z,99064.38
2023-03-12T18:09:56.388Z,99048.94
2023-03-12T18:12:26.514Z,99051.69
2023-03-12T18:14:55.951Z,99048.09
2023-03-12T18:17:25.956Z,99051.69
2023-03-12T18:19:55.745Z,99053.34
2023-03-12T18:22:28.421Z,99051.13
2023-03-12T18:24:59.615Z,99046.69
2023-03-12T18:27:33.794Z,99055.53
2023-03-12T18:30:05.847Z,99061.06
2023-03-12T18:32:37.309Z,99051.69
2023-03-12T18:35:08.355Z,99057.19
2023-03-12T18:37:39.952Z,99048.63
2023-03-12T18:40:12.966Z,99053.88
2023-03-12T18:42:44.743Z,99063.78
2023-03-12T18:45:19.078Z,99067.66
2023-03-12T18:47:51.042Z,99068.47
2023-03-12T18:50:22.344Z,99064.91
2023-03-12T18:52:54.829Z,99074.28
2023-03-12T18:55:24.919Z,99069.31
2023-03-12T18:57:55.046Z,99071.56
2023-03-12T19:00:26.090Z,99069.91
2023-03-12T19:02:58.567Z,99064.66
2023-03-12T19:05:31.050Z,99076.84
2023-03-12T19:08:03.866Z,99071.84
2023-03-12T19:10:34.811Z,99067.44
2023-03-12T19:13:05.028Z,99063.88
2023-03-12T19:15:39.185Z,99065.50
2023-03-12T19:18:10.317Z,99060.53
2023-03-12T19:20:41.976Z,99053.09
2023-03-12T19:23:14.053Z,99057.50
2023-03-12T19:25:51.288Z,99057.50
2023-03-12T19:28:22.556Z,99070.19
2023-03-12T19:30:52.410Z,99081.50
2023-03-12T19:33:25.858Z,99080.69
2023-03-12T19:35:58.441Z,99079.31
2023-03-12T19:38:30.867Z,99071.06
2023-03-12T19:41:04.725Z,99072.44
2023-03-12T19:43:36.985Z,99081.84
2023-03-12T19:46:08.703Z,99069.97
2023-03-12T19:48:39.724Z,99077.97
2023-03-12T19:51:14.141Z,99074.66
2023-03-12T19:53:46.134Z,99082.13
2023-03-12T19:56:19.413Z,99083.25
2023-03-12T19:58:52.759Z,99080.47
2023-03-12T20:01:23.179Z,99077.19
2023-03-12T20:03:53.565Z,99084.34
2023-03-12T20:06:23.521Z,99076.06
2023-03-12T20:08:56.377Z,99074.72
2023-03-12T20:11:25.889Z,99071.41
2023-03-12T20:13:56.466Z,99082.19
2023-03-12T20:16:28.888Z,99083.88
2023-03-12T20:19:00.387Z,99082.00
2023-03-12T20:21:31.403Z,99080.03
2023-03-12T20:24:04.274Z,99074.53
2023-03-12T20:26:40.073Z,99074.81
2023-03-12T20:29:11.296Z,99078.13
2023-03-12T20:31:44.069Z,99077.59
2023-03-12T20:34:14.523Z,99083.38
2023-03-12T20:36:45.319Z,99070.16
2023-03-12T20:39:17.345Z,99067.16
2023-03-12T20:41:47.660Z,99072.41
2023-03-12T20:44:18.892Z,99070.78
2023-03-12T20:46:49.639Z,99073.56
2023-03-12T20:49:21.721Z,99067.28
2023-03-12T20:51:52.019Z,99073.63
2023-03-12T20:54:25.168Z,99072.84
2023-03-12T20:56:54.879Z,99081.09
2023-03-12T20:59:24.639Z,99071.16
2023-03-12T21:01:55.258Z,99069.53
2023-03-12T21:04:25.766Z,99081.66
2023-03-12T21:06:56.858Z,99083.03
2023-03-12T21:09:28.392Z,99086.63
2023-03-12T21:11:59.784Z,99087.47
2023-03-12T21:14:30.577Z,99093.00
2023-03-12T21:17:00.356Z,99094.97
2023-03-12T21:19:30.942Z,99095.50
2023-03-12T21:21:59.645Z,99096.06
2023-03-12T21:24:31.698Z,99099.41
2023-03-12T21:27:00.252Z,99088.38
2023-03-12T21:29:29.279Z,99086.47
2023-03-12T21:31:57.712Z,99093.31
2023-03-12T21:34:26.529Z,99092.75
2023-03-12T21:36:55.146Z,99105.16
2023-03-12T21:39:24.379Z,99096.34
2023-03-12T21:41:56.191Z,99094.66
2023-03-12T21:44:25.220Z,99093.28
2023-03-12T21:46:53.772Z,99096.28
2023-03-12T21:49:22.548Z,99084.16
2023-03-12T21:51:51.245Z,99094.88
2023-03-12T21:54:19.748Z,99098.47
2023-03-12T21:56:48.269Z,99098.19
2023-03-12T21:59:18.081Z,99097.38
2023-03-12T22:01:46.562Z,99103.44
2023-03-12T22:04:15.188Z,99106.72
2023-03-12T22:06:43.636Z,99100.66
2023-03-12T22:09:12.093Z,99108.34
2023-03-12T22:11:41.549Z,99116.03
2023-03-12T22:14:10.142Z,99115.19
2023-03-12T22:16:39.996Z,99114.66
2023-03-12T22:19:09.375Z,99113.78
2023-03-12T22:21:38.185Z,99117.63
2023-03-12T22:24:07.416Z,99111.56
2023-03-12T22:26:36.174Z,99112.63
2023-03-12T22:29:05.292Z,99117.84
2023-03-12T22:31:33.782Z,99112.34
2023-03-12T22:34:03.707Z,99116.75
2023-03-12T22:36:32.173Z,99115.63
2023-03-12T22:39:00.608Z,99125.28
2023-03-12T22:41:31.504Z,99117.06
2023-03-12T22:44:05.064Z,99117.34
2023-03-12T22:46:34.226Z,99114.03
2023-03-12T22:49:05.975Z,99121.47
2023-03-12T22:51:36.393Z,99123.13
2023-03-12T22:54:05.462Z,99120.38
2023-03-12T22:56:33.930Z,99123.66
2023-03-12T22:59:02.379Z,99128.09
2023-03-12T23:01:30.966Z,99130.25
2023-03-12T23:03:59.883Z,99136.88
2023-03-12T23:06:30.587Z,99133.53
2023-03-12T23:08:59.552Z,99131.88
2023-03-12T23:11:29.803Z,99141.25
2023-03-12T23:13:58.698Z,99143.41
2023-03-12T23:16:28.015Z,99134.88
2023-03-12T23:18:57.234Z,99141.47
2023-03-12T23:21:26.672Z,99135.66
2023-03-12T23:23:56.512Z,99142.53
2023-03-12T23:26:28.677Z,99139.78
2023-03-12T23:28:58.868Z,99135.41
2023-03-12T23:31:28.507Z,99134.56
2023-03-12T23:33:58.471Z,99133.72
2023-03-12T23:36:27.386Z,99133.19
2023-03-12T23:38:57.515Z,99133.75
2023-03-12T23:41:29.468Z,99141.50
2023-03-12T23:43:59.713Z,99137.38
2023-03-12T23:46:28.350Z,99141.25
2023-03-12T23:48:58.328Z,99132.16
2023-03-12T23:51:29.501Z,99133.25
2023-03-12T23:54:01.517Z,99127.19
2023-03-12T23:56:36.126Z,99121.13
2023-03-12T23:59:05.949Z,99126.63
